createdAt,value
2023-01-29T00:00:15.401Z,99894.28
2023-01-29T00:02:43.485Z,99893.38
2023-01-29T00:05:26.404Z,99894.31
2023-01-29T00:07:56.410Z,99894.22
2023-01-29T00:10:25.827Z,99890.69
2023-01-29T00:12:53.888Z,99888.03
2023-01-29T00:15:21.650Z,99888.91
2023-01-29T00:17:49.404Z,99885.41
2023-01-29T00:20:17.743Z,99898.72
2023-01-29T00:22:45.748Z,99893.38
2023-01-29T00:25:13.326Z,99895.13
2023-01-29T00:27:40.947Z,99896.84
2023-01-29T00:30:12.726Z,99895.97
2023-01-29T00:32:40.971Z,99895.06
2023-01-29T00:35:09.627Z,99890.66
2023-01-29T00:37:37.670Z,99885.38
2023-01-29T00:40:06.406Z,99882.69
2023-01-29T00:42:52.432Z,99880.09
2023-01-29T00:45:20.114Z,99888.88
2023-01-29T00:47:47.988Z,99882.63
2023-01-29T00:50:16.149Z,99887.13
2023-01-29T00:52:44.316Z,99882.69
2023-01-29T00:55:17.619Z,99884.44
2023-01-29T00:57:45.184Z,99892.44
2023-01-29T01:00:16.729Z,99890.69
2023-01-29T01:03:03.083Z,99884.44
2023-01-29T01:05:31.107Z,99880.03
2023-01-29T01:07:59.352Z,99884.50
2023-01-29T01:10:32.564Z,99883.63
2023-01-29T01:13:06.916Z,99885.34
2023-01-29T01:15:40.699Z,99886.25
2023-01-29T01:18:08.260Z,99887.13
2023-01-29T01:20:37.227Z,99881.88
2023-01-29T01:23:05.267Z,99871.19
2023-01-29T01:25:33.173Z,99880.00
2023-01-29T01:28:01.548Z,99874.72
2023-01-29T01:30:29.211Z,99878.31
2023-01-29T01:32:56.797Z,99878.28
2023-01-29T01:35:24.446Z,99880.97
2023-01-29T01:37:52.068Z,99880.09
2023-01-29T01:40:22.664Z,99876.50
2023-01-29T01:42:58.132Z,99880.88
2023-01-29T01:45:31.537Z,99874.63
2023-01-29T01:48:22.091Z,99883.53
2023-01-29T01:51:03.408Z,99877.34
2023-01-29T01:53:41.049Z,99868.50
2023-01-29T01:56:21.665Z,99865.78
2023-01-29T01:58:58.962Z,99866.66
2023-01-29T02:01:28.718Z,99867.53
2023-01-29T02:04:24.639Z,99878.22
2023-01-29T02:07:13.112Z,99873.75
2023-01-29T02:10:11.250Z,99875.53
2023-01-29T02:12:39.401Z,99867.63
2023-01-29T02:15:08.105Z,99876.50
2023-01-29T02:17:37.519Z,99872.97
2023-01-29T02:20:27.849Z,99887.19
2023-01-29T02:22:56.173Z,99882.75
2023-01-29T02:25:55.709Z,99884.53
2023-01-29T02:28:53.304Z,99880.97
2023-01-29T02:31:41.422Z,99882.72
2023-01-29T02:34:29.633Z,99885.41
2023-01-29T02:37:12.456Z,99888.97
2023-01-29T02:40:05.440Z,99891.63
2023-01-29T02:42:56.362Z,99887.16
2023-01-29T02:46:11.852Z,99888.16
2023-01-29T02:48:58.492Z,99890.72
2023-01-29T02:51:44.687Z,99896.09
2023-01-29T02:54:42.421Z,99880.09
2023-01-29T02:57:33.174Z,99889.88
2023-01-29T03:00:20.242Z,99890.75
2023-01-29T03:02:57.502Z,99887.22
2023-01-29T03:05:43.543Z,99889.00
2023-01-29T03:08:18.863Z,99881.91
2023-01-29T03:10:58.822Z,99882.78
2023-01-29T03:14:05.126Z,99890.78
2023-01-29T03:16:49.514Z,99881.88
2023-01-29T03:19:41.067Z,99882.75
2023-01-29T03:22:21.896Z,99885.47
2023-01-29T03:25:18.219Z,99876.59
2023-01-29T03:28:18.264Z,99885.44
2023-01-29T03:31:22.548Z,99884.56
2023-01-29T03:34:08.468Z,99878.34
2023-01-29T03:36:55.680Z,99886.34
2023-01-29T03:39:28.526Z,99881.88
2023-01-29T03:42:33.322Z,99872.13
2023-01-29T03:45:36.307Z,99869.44
2023-01-29T03:48:39.559Z,99878.34
2023-01-29T03:51:33.337Z,99881.03
2023-01-29T03:54:28.718Z,99877.47
2023-01-29T03:57:05.500Z,99881.91
2023-01-29T03:59:59.941Z,99887.22
2023-01-29T04:03:44.032Z,99883.63
2023-01-29T04:06:27.283Z,99878.34
2023-01-29T04:09:22.086Z,99890.78
2023-01-29T04:12:11.872Z,99885.41
2023-01-29T04:14:49.384Z,99881.00
2023-01-29T04:17:26.136Z,99887.25
2023-01-29T04:20:04.105Z,99886.31
2023-01-29T04:22:36.609Z,99888.13
2023-01-29T04:25:19.446Z,99883.66
2023-01-29T04:28:19.702Z,99883.59
2023-01-29T04:31:07.285Z,99896.03
2023-01-29T04:33:58.355Z,99888.94
2023-01-29T04:36:52.853Z,99894.25
2023-01-29T04:39:38.513Z,99890.69
2023-01-29T04:42:17.068Z,99889.00
2023-01-29T04:45:06.729Z,99884.53
2023-01-29T04:48:02.253Z,99889.88
2023-01-29T04:51:08.617Z,99887.22
2023-01-29T04:53:52.539Z,99884.56
2023-01-29T04:56:30.930Z,99876.56
2023-01-29T04:59:18.232Z,99877.44
2023-01-29T05:01:47.931Z,99878.31
2023-01-29T05:04:21.977Z,99887.22
2023-01-29T05:06:51.261Z,99882.78
2023-01-29T05:09:20.344Z,99885.41
2023-01-29T05:11:49.153Z,99886.34
2023-01-29T05:14:22.481Z,99886.34
2023-01-29T05:16:56.543Z,99889.88
2023-01-29T05:19:24.086Z,99885.41
2023-01-29T05:21:51.842Z,99888.09
2023-01-29T05:24:23.845Z,99892.53
2023-01-29T05:27:12.718Z,99890.72
2023-01-29T05:29:46.750Z,99886.34
2023-01-29T05:32:15.768Z,99881.94
2023-01-29T05:34:43.447Z,99899.69
2023-01-29T05:37:11.475Z,99898.81
2023-01-29T05:39:39.098Z,99894.34
2023-01-29T05:42:07.054Z,99894.34
2023-01-29T05:44:34.718Z,99888.13
2023-01-29T05:47:04.845Z,99881.91
2023-01-29T05:49:32.410Z,99881.88
2023-01-29T05:51:59.995Z,99884.53
2023-01-29T05:54:27.779Z,99886.34
2023-01-29T05:56:56.412Z,99871.25
2023-01-29T05:59:23.974Z,99861.44
2023-01-29T06:01:51.738Z,99843.72
2023-01-29T06:04:19.413Z,99843.72
2023-01-29T06:06:47.059Z,99841.09
2023-01-29T06:09:14.838Z,99833.13
2023-01-29T06:11:42.647Z,99851.75
2023-01-29T06:14:10.511Z,99860.59
2023-01-29T06:16:38.142Z,99860.63
2023-01-29T06:19:05.714Z,99852.66
2023-01-29T06:21:33.487Z,99857.06
2023-01-29T06:24:01.104Z,99861.50
2023-01-29T06:26:29.458Z,99862.41
2023-01-29T06:28:57.095Z,99871.28
2023-01-29T06:31:37.972Z,99871.25
2023-01-29T06:34:07.918Z,99883.69
2023-01-29T06:36:36.696Z,99874.78
2023-01-29T06:39:04.844Z,99874.81
2023-01-29T06:41:32.615Z,99875.69
2023-01-29T06:44:00.313Z,99867.72
2023-01-29T06:46:27.934Z,99878.34
2023-01-29T06:48:59.319Z,99882.78
2023-01-29T06:51:27.255Z,99883.66
2023-01-29T06:53:56.070Z,99880.97
2023-01-29T06:56:24.806Z,99882.81
2023-01-29T06:58:52.617Z,99881.00
2023-01-29T07:01:34.751Z,99887.22
2023-01-29T07:04:03.859Z,99888.13
2023-01-29T07:06:32.144Z,99894.31
2023-01-29T07:08:59.864Z,99904.09
2023-01-29T07:11:30.243Z,99904.97
2023-01-29T07:13:57.999Z,99896.06
2023-01-29T07:16:26.419Z,99888.09
2023-01-29T07:18:54.227Z,99895.19
2023-01-29T07:21:21.961Z,99893.44
2023-01-29T07:23:49.640Z,99898.78
2023-01-29T07:26:20.425Z,99899.66
2023-01-29T07:28:48.097Z,99900.53
2023-01-29T07:31:16.540Z,99910.31
2023-01-29T07:33:45.436Z,99904.09
2023-01-29T07:36:14.698Z,99908.53
2023-01-29T07:38:42.474Z,99906.78
2023-01-29T07:41:11.622Z,99915.66
2023-01-29T07:43:41.983Z,99915.59
2023-01-29T07:46:09.700Z,99914.72
2023-01-29T07:48:37.426Z,99922.75
2023-01-29T07:51:05.487Z,99919.16
2023-01-29T07:53:33.345Z,99918.25
2023-01-29T07:56:00.966Z,99919.16
2023-01-29T07:58:28.673Z,99921.84
2023-01-29T08:00:58.863Z,99922.69
2023-01-29T08:03:26.457Z,99927.13
2023-01-29T08:05:54.077Z,99928.97
2023-01-29T08:08:21.700Z,99938.72
2023-01-29T08:10:50.130Z,99928.00
2023-01-29T08:13:20.418Z,99922.72
2023-01-29T08:15:48.124Z,99923.59
2023-01-29T08:18:16.122Z,99923.53
2023-01-29T08:20:43.776Z,99917.28
2023-01-29T08:23:15.861Z,99910.09
2023-01-29T08:25:43.883Z,99919.09
2023-01-29T08:28:12.361Z,99920.06
2023-01-29T08:30:40.494Z,99938.72
2023-01-29T08:33:08.113Z,99936.00
2023-01-29T08:35:35.943Z,99944.03
2023-01-29T08:38:05.011Z,99940.47
2023-01-29T08:40:34.427Z,99946.72
2023-01-29T08:43:06.865Z,99952.94
2023-01-29T08:45:38.906Z,99952.06
2023-01-29T08:48:06.837Z,99937.84
2023-01-29T08:50:35.395Z,99943.16
2023-01-29T08:53:08.014Z,99945.81
2023-01-29T08:55:40.433Z,99953.78
2023-01-29T08:58:11.001Z,99961.75
2023-01-29T09:00:38.915Z,99967.00
2023-01-29T09:03:08.028Z,99961.63
2023-01-29T09:05:38.204Z,99957.13
2023-01-29T09:08:08.345Z,99960.72
2023-01-29T09:10:36.470Z,99956.38
2023-01-29T09:13:05.027Z,99958.19
2023-01-29T09:15:32.750Z,99954.59
2023-01-29T09:18:04.907Z,99965.22
2023-01-29T09:20:32.955Z,99972.28
2023-01-29T09:23:06.498Z,99965.19
2023-01-29T09:25:34.632Z,99967.91
2023-01-29T09:28:02.298Z,99957.25
2023-01-29T09:30:30.168Z,99961.75
2023-01-29T09:33:00.268Z,99962.59
2023-01-29T09:35:27.834Z,99960.81
2023-01-29T09:37:55.603Z,99968.84
2023-01-29T09:40:38.497Z,99966.13
2023-01-29T09:43:27.825Z,99963.31
2023-01-29T09:46:07.328Z,99966.78
2023-01-29T09:48:37.631Z,99967.56
2023-01-29T09:51:18.473Z,99959.38
2023-01-29T09:54:40.329Z,99955.69
2023-01-29T09:57:17.674Z,99951.31
2023-01-29T09:59:45.333Z,99941.34
2023-01-29T10:02:57.895Z,99940.75
2023-01-29T10:06:05.627Z,99934.81
2023-01-29T10:08:42.393Z,99929.34
2023-01-29T10:11:33.077Z,99907.97
2023-01-29T10:14:38.027Z,99893.25
2023-01-29T10:17:08.390Z,99894.66
2023-01-29T10:19:35.934Z,99893.81
2023-01-29T10:22:27.787Z,99885.38
2023-01-29T10:25:20.168Z,99886.88
2023-01-29T10:27:58.716Z,99894.94
2023-01-29T10:30:41.428Z,99896.69
2023-01-29T10:33:18.699Z,99895.66
2023-01-29T10:36:02.638Z,99898.44
2023-01-29T10:38:46.713Z,99899.22
2023-01-29T10:41:47.067Z,99898.81
2023-01-29T10:44:50.554Z,99915.00
2023-01-29T10:47:52.704Z,99904.34
2023-01-29T10:50:53.493Z,99904.13
2023-01-29T10:53:53.644Z,99899.84
2023-01-29T10:57:14.687Z,99887.53
2023-01-29T10:59:50.851Z,99891.81
2023-01-29T11:02:22.061Z,99889.66
2023-01-29T11:04:49.976Z,99888.44
2023-01-29T11:07:22.281Z,99891.78
2023-01-29T11:10:15.641Z,99889.78
2023-01-29T11:12:44.944Z,99893.13
2023-01-29T11:15:30.789Z,99887.31
2023-01-29T11:18:15.349Z,99885.47
2023-01-29T11:20:45.149Z,99884.34
2023-01-29T11:23:41.696Z,99881.72
2023-01-29T11:26:16.947Z,99878.22
2023-01-29T11:28:50.252Z,99863.03
2023-01-29T11:31:29.534Z,99866.50
2023-01-29T11:34:19.582Z,99867.13
2023-01-29T11:36:57.268Z,99875.94
2023-01-29T11:39:27.549Z,99860.59
2023-01-29T11:42:04.322Z,99858.69
2023-01-29T11:44:57.657Z,99855.44
2023-01-29T11:47:30.359Z,99840.63
2023-01-29T11:50:05.636Z,99835.22
2023-01-29T11:52:40.962Z,99850.22
2023-01-29T11:55:25.970Z,99852.03
2023-01-29T11:58:18.838Z,99845.09
2023-01-29T12:00:50.952Z,99849.25
2023-01-29T12:03:43.808Z,99835.69
2023-01-29T12:06:32.526Z,99840.78
2023-01-29T12:09:10.727Z,99823.56
2023-01-29T12:11:38.537Z,99821.31
2023-01-29T12:14:28.980Z,99815.06
2023-01-29T12:17:26.286Z,99812.50
2023-01-29T12:20:17.806Z,99804.03
2023-01-29T12:23:19.630Z,99794.59
2023-01-29T12:26:12.944Z,99778.94
2023-01-29T12:29:16.887Z,99766.53
2023-01-29T12:32:17.825Z,99755.41
2023-01-29T12:35:24.251Z,99747.66
2023-01-29T12:38:05.053Z,99737.41
2023-01-29T12:40:45.169Z,99732.88
2023-01-29T12:43:54.048Z,99728.31
2023-01-29T12:46:32.027Z,99714.16
2023-01-29T12:49:03.354Z,99712.41
2023-01-29T12:51:44.227Z,99712.91
2023-01-29T12:54:20.146Z,99707.28
2023-01-29T12:56:52.047Z,99713.38
2023-01-29T12:59:38.365Z,99704.72
2023-01-29T13:02:58.412Z,99699.47
2023-01-29T13:05:48.858Z,99705.66
2023-01-29T13:08:54.964Z,99695.38
2023-01-29T13:12:09.585Z,99693.06
2023-01-29T13:18:23.482Z,99680.81
2023-01-29T13:20:51.830Z,99679.06
2023-01-29T13:23:36.432Z,99679.50
2023-01-29T13:26:05.806Z,99669.91
2023-01-29T13:28:34.546Z,99670.06
2023-01-29T13:31:38.100Z,99676.59
2023-01-29T13:34:18.193Z,99676.13
2023-01-29T13:36:52.904Z,99673.94
2023-01-29T13:39:34.866Z,99681.44
2023-01-29T13:42:22.024Z,99676.66
2023-01-29T13:45:02.697Z,99683.75
2023-01-29T13:47:44.545Z,99680.41
2023-01-29T13:50:27.477Z,99669.84
2023-01-29T13:53:01.879Z,99679.78
2023-01-29T13:55:39.358Z,99678.50
2023-01-29T13:58:31.682Z,99685.84
2023-01-29T14:01:02.648Z,99682.06
2023-01-29T14:03:40.019Z,99687.31
2023-01-29T14:06:44.972Z,99684.41
2023-01-29T14:09:32.387Z,99684.53
2023-01-29T14:12:04.420Z,99685.91
2023-01-29T14:14:48.694Z,99690.66
2023-01-29T14:17:19.186Z,99693.16
2023-01-29T14:19:52.702Z,99687.66
2023-01-29T14:22:27.833Z,99688.31
2023-01-29T14:25:04.874Z,99682.94
2023-01-29T14:27:35.002Z,99684.13
2023-01-29T14:30:09.719Z,99679.19
2023-01-29T14:32:40.572Z,99676.03
2023-01-29T14:35:40.291Z,99667.50
2023-01-29T14:38:14.249Z,99667.28
2023-01-29T14:40:44.799Z,99666.25
2023-01-29T14:43:21.762Z,99669.97
2023-01-29T14:45:50.306Z,99671.09
2023-01-29T14:48:39.669Z,99679.63
2023-01-29T14:51:11.214Z,99680.19
2023-01-29T14:54:05.096Z,99680.44
2023-01-29T14:57:05.809Z,99671.25
2023-01-29T14:59:48.882Z,99663.53
2023-01-29T15:02:39.444Z,99662.47
2023-01-29T15:05:30.765Z,99662.00
2023-01-29T15:08:29.995Z,99660.19
2023-01-29T15:11:21.959Z,99656.53
2023-01-29T15:14:16.858Z,99664.31
2023-01-29T15:17:01.083Z,99666.09
2023-01-29T15:19:40.333Z,99659.78
2023-01-29T15:22:19.449Z,99651.97
2023-01-29T15:25:14.274Z,99652.81
2023-01-29T15:27:45.820Z,99654.91
2023-01-29T15:30:22.593Z,99656.66
2023-01-29T15:32:50.804Z,99656.44
2023-01-29T15:35:33.908Z,99654.75
2023-01-29T15:38:07.845Z,99655.34
2023-01-29T15:40:35.908Z,99654.22
2023-01-29T15:43:22.626Z,99661.25
2023-01-29T15:45:57.585Z,99655.88
2023-01-29T15:48:34.993Z,99665.16
2023-01-29T15:51:07.290Z,99667.75
2023-01-29T15:54:04.691Z,99677.78
2023-01-29T15:56:41.676Z,99671.41
2023-01-29T15:59:22.794Z,99670.50
2023-01-29T16:01:50.556Z,99672.44
2023-01-29T16:04:28.993Z,99668.44
2023-01-29T16:07:00.693Z,99668.91
2023-01-29T16:09:29.683Z,99656.22
2023-01-29T16:11:59.899Z,99655.72
2023-01-29T16:14:28.812Z,99657.53
2023-01-29T16:16:56.509Z,99653.06
2023-01-29T16:19:28.403Z,99656.69
2023-01-29T16:21:59.412Z,99655.91
2023-01-29T16:24:29.593Z,99648.19
2023-01-29T16:27:12.398Z,99655.28
2023-01-29T16:29:40.160Z,99660.63
2023-01-29T16:32:12.350Z,99659.03
2023-01-29T16:34:47.867Z,99663.53
2023-01-29T16:37:32.621Z,99671.53
2023-01-29T16:40:00.456Z,99668.19
2023-01-29T16:42:31.383Z,99676.13
2023-01-29T16:45:07.291Z,99664.47
2023-01-29T16:47:41.793Z,99676.94
2023-01-29T16:50:54.688Z,99677.88
2023-01-29T16:53:27.344Z,99680.56
2023-01-29T16:56:02.902Z,99679.69
2023-01-29T16:58:30.666Z,99680.66
2023-01-29T17:01:10.922Z,99679.75
2023-01-29T17:03:40.742Z,99684.25
2023-01-29T17:06:24.152Z,99686.03
2023-01-29T17:08:52.687Z,99689.66
2023-01-29T17:11:38.815Z,99691.41
2023-01-29T17:14:09.103Z,99693.28
2023-01-29T17:16:56.706Z,99696.88
2023-01-29T17:19:25.675Z,99696.94
2023-01-29T17:21:53.524Z,99701.38
2023-01-29T17:24:23.377Z,99698.78
2023-01-29T17:26:51.776Z,99694.34
2023-01-29T17:29:24.338Z,99697.97
2023-01-29T17:31:52.043Z,99693.53
2023-01-29T17:34:19.819Z,99691.84
2023-01-29T17:36:47.795Z,99688.34
2023-01-29T17:39:19.538Z,99686.56
2023-01-29T17:41:58.293Z,99683.06
2023-01-29T17:44:26.672Z,99681.34
2023-01-29T17:46:54.653Z,99676.09
2023-01-29T17:49:32.554Z,99676.03
2023-01-29T17:52:00.174Z,99682.31
2023-01-29T17:54:27.893Z,99680.56
2023-01-29T17:56:55.710Z,99684.97
2023-01-29T17:59:28.870Z,99685.84
2023-01-29T18:01:56.506Z,99684.97
2023-01-29T18:04:24.217Z,99686.78
2023-01-29T18:06:53.349Z,99687.66
2023-01-29T18:09:21.753Z,99682.31
2023-01-29T18:11:50.811Z,99688.53
2023-01-29T18:14:18.297Z,99692.09
2023-01-29T18:16:46.432Z,99683.22
2023-01-29T18:19:27.560Z,99686.78
2023-01-29T18:21:55.510Z,99685.91
2023-01-29T18:24:23.559Z,99676.16
2023-01-29T18:26:51.923Z,99680.56
2023-01-29T18:29:19.721Z,99679.66
2023-01-29T18:31:49.688Z,99680.59
2023-01-29T18:34:20.484Z,99678.78
2023-01-29T18:36:48.125Z,99681.44
2023-01-29T18:39:16.446Z,99685.00
2023-01-29T18:41:44.354Z,99679.69
2023-01-29T18:44:12.223Z,99679.69
2023-01-29T18:46:39.891Z,99677.91
2023-01-29T18:49:07.638Z,99676.16
2023-01-29T18:51:35.604Z,99672.63
2023-01-29T18:54:04.210Z,99674.38
2023-01-29T18:56:31.993Z,99667.28
2023-01-29T18:58:59.656Z,99670.84
2023-01-29T19:01:27.579Z,99685.00
2023-01-29T19:03:56.036Z,99684.13
2023-01-29T19:06:23.866Z,99685.00
2023-01-29T19:08:51.821Z,99686.78
2023-01-29T19:11:20.165Z,99692.09
2023-01-29T19:13:49.778Z,99683.22
2023-01-29T19:16:17.920Z,99685.88
2023-01-29T19:18:45.659Z,99697.41
2023-01-29T19:21:16.566Z,99700.94
2023-01-29T19:23:45.039Z,99693.88
2023-01-29T19:26:13.571Z,99696.50
2023-01-29T19:28:42.109Z,99698.28
2023-01-29T19:31:10.083Z,99697.41
2023-01-29T19:33:38.945Z,99699.94
2023-01-29T19:36:07.426Z,99704.44
2023-01-29T19:38:38.500Z,99712.44
2023-01-29T19:41:06.683Z,99710.66
2023-01-29T19:43:34.781Z,99715.09
2023-01-29T19:46:02.822Z,99715.09
2023-01-29T19:48:30.694Z,99711.53
2023-01-29T19:51:01.164Z,99717.69
2023-01-29T19:53:30.277Z,99715.03
2023-01-29T19:56:08.894Z,99713.28
2023-01-29T19:58:37.244Z,99717.69
2023-01-29T20:01:08.314Z,99713.25
2023-01-29T20:03:37.894Z,99714.16
2023-01-29T20:06:07.256Z,99711.47
2023-01-29T20:08:35.668Z,99709.69
2023-01-29T20:11:05.619Z,99715.91
2023-01-29T20:13:34.317Z,99715.00
2023-01-29T20:16:03.841Z,99713.19
2023-01-29T20:18:32.323Z,99707.00
2023-01-29T20:21:00.276Z,99706.97
2023-01-29T20:23:37.617Z,99708.75
2023-01-29T20:26:11.684Z,99704.28
2023-01-29T20:28:39.484Z,99707.78
2023-01-29T20:31:09.020Z,99706.94
2023-01-29T20:33:39.463Z,99707.81
2023-01-29T20:36:10.218Z,99705.13
2023-01-29T20:38:38.146Z,99696.31
2023-01-29T20:41:15.169Z,99697.16
2023-01-29T20:43:44.283Z,99691.84
2023-01-29T20:46:13.329Z,99686.53
2023-01-29T20:48:42.101Z,99679.44
2023-01-29T20:51:15.258Z,99677.63
2023-01-29T20:53:50.069Z,99675.84
2023-01-29T20:56:18.408Z,99667.00
2023-01-29T20:58:59.902Z,99667.88
2023-01-29T21:01:27.774Z,99662.56
2023-01-29T21:03:55.545Z,99654.59
2023-01-29T21:06:23.229Z,99652.84
2023-01-29T21:08:50.995Z,99636.88
2023-01-29T21:11:18.800Z,99633.34
2023-01-29T21:13:51.007Z,99627.13
2023-01-29T21:16:18.819Z,99635.09
2023-01-29T21:18:46.604Z,99629.75
2023-01-29T21:21:15.033Z,99637.72
2023-01-29T21:23:42.945Z,99632.41
2023-01-29T21:26:10.690Z,99633.31
2023-01-29T21:28:38.415Z,99645.66
2023-01-29T21:31:14.424Z,99642.03
2023-01-29T21:33:42.013Z,99643.72
2023-01-29T21:36:11.125Z,99641.97
2023-01-29T21:38:39.431Z,99649.88
2023-01-29T21:41:09.706Z,99647.31
2023-01-29T21:43:38.019Z,99650.91
2023-01-29T21:46:13.959Z,99647.38
2023-01-29T21:48:41.845Z,99657.09
2023-01-29T21:51:09.678Z,99648.25
2023-01-29T21:53:38.098Z,99653.53
2023-01-29T21:56:06.472Z,99648.19
2023-01-29T21:58:37.233Z,99642.03
2023-01-29T22:01:35.877Z,99647.31
2023-01-29T22:03:53.028Z,99641.91
2023-01-29T22:06:20.749Z,99642.78
2023-01-29T22:08:49.690Z,99650.38
2023-01-29T22:11:17.462Z,99654.88
2023-01-29T22:13:45.407Z,99650.53
2023-01-29T22:16:13.157Z,99654.06
2023-01-29T22:18:40.719Z,99653.28
2023-01-29T22:21:08.516Z,99648.00
2023-01-29T22:23:36.148Z,99649.53
2023-01-29T22:26:06.199Z,99647.09
2023-01-29T22:28:36.188Z,99645.31
2023-01-29T22:31:05.728Z,99640.06
2023-01-29T22:33:34.156Z,99632.06
2023-01-29T22:36:02.617Z,99636.50
2023-01-29T22:38:30.528Z,99641.81
2023-01-29T22:41:00.446Z,99635.59
2023-01-29T22:43:29.269Z,99633.84
2023-01-29T22:45:57.067Z,99632.06
2023-01-29T22:48:25.152Z,99627.69
2023-01-29T22:51:11.615Z,99622.38
2023-01-29T22:53:56.399Z,99613.50
2023-01-29T22:56:27.274Z,99606.44
2023-01-29T22:58:58.016Z,99603.75
2023-01-29T23:01:30.032Z,99592.34
2023-01-29T23:03:58.231Z,99580.78
2023-01-29T23:06:27.200Z,99577.22
2023-01-29T23:08:54.751Z,99567.47
2023-01-29T23:11:23.751Z,99567.22
2023-01-29T23:13:54.521Z,99561.94
2023-01-29T23:16:27.978Z,99553.22
2023-01-29T23:18:56.820Z,99549.59
2023-01-29T23:21:25.422Z,99548.75
2023-01-29T23:23:55.241Z,99546.16
2023-01-29T23:26:41.350Z,99546.19
2023-01-29T23:29:10.019Z,99544.38
2023-01-29T23:31:37.883Z,99551.44
2023-01-29T23:34:05.580Z,99550.56
2023-01-29T23:36:33.405Z,99528.50
2023-01-29T23:39:01.020Z,99521.47
2023-01-29T23:41:28.711Z,99530.25
2023-01-29T23:43:56.352Z,99530.28
2023-01-29T23:46:24.081Z,99531.16
2023-01-29T23:48:51.779Z,99536.44
2023-01-29T23:51:19.725Z,99524.94
2023-01-29T23:53:50.318Z,99517.78
2023-01-29T23:56:18.190Z,99516.00
2023-01-29T23:58:46.070Z,99515.06
